sensor_id;sensor_type;location;lat;lon;timestamp;pressure;altitude;pressure_sealevel;temperature;humidity
34931;BME280;21134;49.646;8.560;2022-08-20T00:00:35;100427.78;;;21.03;62.26
34931;BME280;21134;49.646;8.560;2022-08-20T00:03:05;100427.00;;;21.01;62.25
34931;BME280;21134;49.646;8.560;2022-08-20T00:05:34;100431.50;;;20.97;62.50
34931;BME280;21134;49.646;8.560;2022-08-20T00:08:01;100439.31;;;20.97;62.63
34931;BME280;21134;49.646;8.560;2022-08-20T00:10:32;100441.22;;;20.94;62.80
34931;BME280;21134;49.646;8.560;2022-08-20T00:13:00;100439.00;;;20.84;63.01
34931;BME280;21134;49.646;8.560;2022-08-20T00:15:29;100444.66;;;20.74;63.53
34931;BME280;21134;49.646;8.560;2022-08-20T00:17:57;100438.97;;;20.65;63.55
34931;BME280;21134;49.646;8.560;2022-08-20T00:20:27;100440.28;;;20.55;63.91
34931;BME280;21134;49.646;8.560;2022-08-20T00:22:55;100445.63;;;20.51;63.99
34931;BME280;21134;49.646;8.560;2022-08-20T00:25:22;100445.84;;;20.46;64.14
34931;BME280;21134;49.646;8.560;2022-08-20T00:27:50;100452.06;;;20.42;64.68
34931;BME280;21134;49.646;8.560;2022-08-20T00:30:17;100453.91;;;20.40;64.40
34931;BME280;21134;49.646;8.560;2022-08-20T00:32:44;100442.81;;;20.36;64.69
34931;BME280;21134;49.646;8.560;2022-08-20T00:35:11;100454.84;;;20.39;64.60
34931;BME280;21134;49.646;8.560;2022-08-20T00:37:39;100448.75;;;20.38;65.06
34931;BME280;21134;49.646;8.560;2022-08-20T00:40:08;100447.03;;;20.39;65.17
34931;BME280;21134;49.646;8.560;2022-08-20T00:42:40;100447.16;;;20.36;65.27
34931;BME280;21134;49.646;8.560;2022-08-20T00:45:09;100454.03;;;20.37;65.64
34931;BME280;21134;49.646;8.560;2022-08-20T00:47:37;100460.41;;;20.30;65.79
34931;BME280;21134;49.646;8.560;2022-08-20T00:50:06;100457.09;;;20.26;65.61
34931;BME280;21134;49.646;8.560;2022-08-20T00:52:34;100454.63;;;20.23;66.30
34931;BME280;21134;49.646;8.560;2022-08-20T00:55:02;100461.28;;;20.29;65.85
34931;BME280;21134;49.646;8.560;2022-08-20T00:57:32;100454.53;;;20.25;66.24
34931;BME280;21134;49.646;8.560;2022-08-20T01:00:03;100448.63;;;20.21;66.29
34931;BME280;21134;49.646;8.560;2022-08-20T01:02:33;100452.63;;;20.30;66.34
34931;BME280;21134;49.646;8.560;2022-08-20T01:05:00;100449.94;;;20.31;66.42
34931;BME280;21134;49.646;8.560;2022-08-20T01:07:28;100453.06;;;20.39;65.80
34931;BME280;21134;49.646;8.560;2022-08-20T01:09:59;100462.63;;;20.39;65.83
34931;BME280;21134;49.646;8.560;2022-08-20T01:12:28;100468.84;;;20.35;65.99
34931;BME280;21134;49.646;8.560;2022-08-20T01:14:55;100468.91;;;20.33;66.23
34931;BME280;21134;49.646;8.560;2022-08-20T01:17:25;100461.84;;;20.37;66.15
34931;BME280;21134;49.646;8.560;2022-08-20T01:19:57;100467.66;;;20.42;65.69
34931;BME280;21134;49.646;8.560;2022-08-20T01:22:29;100471.84;;;20.46;66.14
34931;BME280;21134;49.646;8.560;2022-08-20T01:25:21;100470.09;;;20.47;65.81
34931;BME280;21134;49.646;8.560;2022-08-20T01:27:53;100477.34;;;20.38;66.06
34931;BME280;21134;49.646;8.560;2022-08-20T01:30:25;100472.47;;;20.31;66.41
34931;BME280;21134;49.646;8.560;2022-08-20T01:32:54;100478.47;;;20.33;66.33
34931;BME280;21134;49.646;8.560;2022-08-20T01:35:22;100465.59;;;20.30;66.56
34931;BME280;21134;49.646;8.560;2022-08-20T01:37:49;100475.78;;;20.34;66.39
34931;BME280;21134;49.646;8.560;2022-08-20T01:40:22;100480.06;;;20.35;66.29
34931;BME280;21134;49.646;8.560;2022-08-20T01:42:54;100481.06;;;20.33;66.17
34931;BME280;21134;49.646;8.560;2022-08-20T01:45:21;100478.53;;;20.31;66.34
34931;BME280;21134;49.646;8.560;2022-08-20T01:47:47;100479.91;;;20.40;65.93
34931;BME280;21134;49.646;8.560;2022-08-20T01:50:17;100482.38;;;20.43;66.19
34931;BME280;21134;49.646;8.560;2022-08-20T01:52:50;100486.66;;;20.44;66.02
34931;BME280;21134;49.646;8.560;2022-08-20T01:55:20;100479.66;;;20.46;65.98
34931;BME280;21134;49.646;8.560;2022-08-20T01:57:47;100484.00;;;20.46;65.85
34931;BME280;21134;49.646;8.560;2022-08-20T02:00:17;100492.75;;;20.43;66.18
34931;BME280;21134;49.646;8.560;2022-08-20T02:02:45;100492.50;;;20.49;65.90
34931;BME280;21134;49.646;8.560;2022-08-20T02:05:11;100496.91;;;20.47;66.05
34931;BME280;21134;49.646;8.560;2022-08-20T02:07:38;100499.38;;;20.50;65.85
34931;BME280;21134;49.646;8.560;2022-08-20T02:10:08;100499.28;;;20.53;65.85
34931;BME280;21134;49.646;8.560;2022-08-20T02:12:35;100501.19;;;20.48;66.38
34931;BME280;21134;49.646;8.560;2022-08-20T02:15:07;100490.66;;;20.53;66.25
34931;BME280;21134;49.646;8.560;2022-08-20T02:17:37;100502.00;;;20.50;66.49
34931;BME280;21134;49.646;8.560;2022-08-20T02:20:08;100509.88;;;20.49;66.33
34931;BME280;21134;49.646;8.560;2022-08-20T02:22:39;100510.72;;;20.49;66.54
34931;BME280;21134;49.646;8.560;2022-08-20T02:25:08;100513.00;;;20.57;66.15
34931;BME280;21134;49.646;8.560;2022-08-20T02:27:38;100503.31;;;20.60;66.24
34931;BME280;21134;49.646;8.560;2022-08-20T02:30:08;100507.75;;;20.58;66.09
34931;BME280;21134;49.646;8.560;2022-08-20T02:32:38;100513.66;;;20.62;66.18
34931;BME280;21134;49.646;8.560;2022-08-20T02:35:07;100502.59;;;20.57;66.34
34931;BME280;21134;49.646;8.560;2022-08-20T02:37:35;100496.56;;;20.56;66.32
34931;BME280;21134;49.646;8.560;2022-08-20T02:40:03;100497.34;;;20.58;66.58
34931;BME280;21134;49.646;8.560;2022-08-20T02:42:32;100490.41;;;20.59;66.41
34931;BME280;21134;49.646;8.560;2022-08-20T02:44:58;100488.63;;;20.59;66.70
34931;BME280;21134;49.646;8.560;2022-08-20T02:47:25;100493.63;;;20.64;66.39
34931;BME280;21134;49.646;8.560;2022-08-20T02:49:54;100498.69;;;20.67;66.28
34931;BME280;21134;49.646;8.560;2022-08-20T02:52:22;100500.28;;;20.71;66.56
34931;BME280;21134;49.646;8.560;2022-08-20T02:54:48;100500.16;;;20.74;66.52
34931;BME280;21134;49.646;8.560;2022-08-20T02:57:17;100500.91;;;20.76;66.03
34931;BME280;21134;49.646;8.560;2022-08-20T02:59:45;100500.91;;;20.76;66.16
34931;BME280;21134;49.646;8.560;2022-08-20T03:02:12;100502.00;;;20.71;66.47
34931;BME280;21134;49.646;8.560;2022-08-20T03:04:39;100502.00;;;20.71;66.53
34931;BME280;21134;49.646;8.560;2022-08-20T03:07:07;100502.81;;;20.73;66.82
34931;BME280;21134;49.646;8.560;2022-08-20T03:09:34;100499.94;;;20.79;66.63
34931;BME280;21134;49.646;8.560;2022-08-20T03:12:01;100498.13;;;20.81;66.30
34931;BME280;21134;49.646;8.560;2022-08-20T03:14:28;100504.88;;;20.85;65.50
34931;BME280;21134;49.646;8.560;2022-08-20T03:16:55;100504.09;;;20.83;65.61
34931;BME280;21134;49.646;8.560;2022-08-20T03:19:21;100504.09;;;20.83;65.47
34931;BME280;21134;49.646;8.560;2022-08-20T03:21:48;100505.72;;;20.85;65.51
34931;BME280;21134;49.646;8.560;2022-08-20T03:24:16;100504.78;;;20.86;65.88
34931;BME280;21134;49.646;8.560;2022-08-20T03:26:43;100508.19;;;20.88;65.45
34931;BME280;21134;49.646;8.560;2022-08-20T03:29:11;100508.13;;;20.90;65.66
34931;BME280;21134;49.646;8.560;2022-08-20T03:31:37;100503.13;;;20.85;65.99
34931;BME280;21134;49.646;8.560;2022-08-20T03:34:04;100505.59;;;20.88;65.71
34931;BME280;21134;49.646;8.560;2022-08-20T03:36:31;100509.16;;;20.86;65.78
34931;BME280;21134;49.646;8.560;2022-08-20T03:39:00;100505.84;;;20.82;66.33
34931;BME280;21134;49.646;8.560;2022-08-20T03:41:28;100513.72;;;20.81;66.14
34931;BME280;21134;49.646;8.560;2022-08-20T03:43:56;100514.63;;;20.80;65.82
34931;BME280;21134;49.646;8.560;2022-08-20T03:46:23;100512.84;;;20.80;65.76
34931;BME280;21134;49.646;8.560;2022-08-20T03:48:50;100511.84;;;20.84;65.70
34931;BME280;21134;49.646;8.560;2022-08-20T03:51:17;100505.81;;;20.84;65.97
34931;BME280;21134;49.646;8.560;2022-08-20T03:53:44;100509.25;;;20.84;65.82
34931;BME280;21134;49.646;8.560;2022-08-20T03:56:10;100514.56;;;20.81;66.22
34931;BME280;21134;49.646;8.560;2022-08-20T03:58:38;100512.22;;;20.75;66.43
34931;BME280;21134;49.646;8.560;2022-08-20T04:01:05;100505.41;;;20.73;66.34
34931;BME280;21134;49.646;8.560;2022-08-20T04:03:32;100498.38;;;20.75;65.96
34931;BME280;21134;49.646;8.560;2022-08-20T04:05:59;100500.16;;;20.74;66.56
34931;BME280;21134;49.646;8.560;2022-08-20T04:08:27;100505.06;;;20.80;66.26
34931;BME280;21134;49.646;8.560;2022-08-20T04:10:56;100500.03;;;20.77;66.69
34931;BME280;21134;49.646;8.560;2022-08-20T04:13:25;100500.28;;;20.71;66.90
34931;BME280;21134;49.646;8.560;2022-08-20T04:15:54;100498.44;;;20.73;66.94
34931;BME280;21134;49.646;8.560;2022-08-20T04:18:22;100497.59;;;20.73;67.07
34931;BME280;21134;49.646;8.560;2022-08-20T04:20:50;100499.28;;;20.74;67.04
34931;BME280;21134;49.646;8.560;2022-08-20T04:23:17;100498.25;;;20.78;66.93
34931;BME280;21134;49.646;8.560;2022-08-20T04:25:46;100502.47;;;20.80;67.15
34931;BME280;21134;49.646;8.560;2022-08-20T04:28:15;100496.41;;;20.80;67.42
34931;BME280;21134;49.646;8.560;2022-08-20T04:30:50;100505.00;;;20.82;67.29
34931;BME280;21134;49.646;8.560;2022-08-20T04:33:19;100509.38;;;20.81;67.52
34931;BME280;21134;49.646;8.560;2022-08-20T04:35:46;100516.13;;;20.85;67.08
34931;BME280;21134;49.646;8.560;2022-08-20T04:38:14;100511.88;;;20.83;67.62
34931;BME280;21134;49.646;8.560;2022-08-20T04:40:41;100516.25;;;20.82;68.08
34931;BME280;21134;49.646;8.560;2022-08-20T04:43:24;100514.50;;;20.83;67.78
34931;BME280;21134;49.646;8.560;2022-08-20T04:45:51;100511.06;;;20.82;67.79
34931;BME280;21134;49.646;8.560;2022-08-20T04:48:20;100514.56;;;20.81;67.54
34931;BME280;21134;49.646;8.560;2022-08-20T04:50:49;100515.63;;;20.77;68.11
34931;BME280;21134;49.646;8.560;2022-08-20T04:53:18;100518.97;;;20.79;67.88
34931;BME280;21134;49.646;8.560;2022-08-20T04:55:45;100518.41;;;20.73;68.28
34931;BME280;21134;49.646;8.560;2022-08-20T04:58:16;100520.16;;;20.72;68.21
34931;BME280;21134;49.646;8.560;2022-08-20T05:00:45;100527.19;;;20.70;68.53
34931;BME280;21134;49.646;8.560;2022-08-20T05:03:12;100521.66;;;20.78;68.39
34931;BME280;21134;49.646;8.560;2022-08-20T05:05:41;100524.84;;;20.84;68.21
34931;BME280;21134;49.646;8.560;2022-08-20T05:08:09;100527.44;;;20.84;68.13
34931;BME280;21134;49.646;8.560;2022-08-20T05:10:36;100531.47;;;20.92;67.97
34931;BME280;21134;49.646;8.560;2022-08-20T05:13:03;100526.91;;;20.97;67.63
34931;BME280;21134;49.646;8.560;2022-08-20T05:15:30;100533.72;;;20.99;67.94
34931;BME280;21134;49.646;8.560;2022-08-20T05:17:59;100543.09;;;21.03;67.47
34931;BME280;21134;49.646;8.560;2022-08-20T05:20:27;100540.50;;;21.03;67.47
34931;BME280;21134;49.646;8.560;2022-08-20T05:22:56;100545.50;;;21.08;67.29
34931;BME280;21134;49.646;8.560;2022-08-20T05:25:23;100549.59;;;21.13;66.94
34931;BME280;21134;49.646;8.560;2022-08-20T05:27:55;100553.97;;;21.13;67.09
34931;BME280;21134;49.646;8.560;2022-08-20T05:30:21;100557.31;;;21.15;67.24
34931;BME280;21134;49.646;8.560;2022-08-20T05:32:48;100566.63;;;21.21;67.29
34931;BME280;21134;49.646;8.560;2022-08-20T05:35:14;100563.97;;;21.22;67.60
34931;BME280;21134;49.646;8.560;2022-08-20T05:37:41;100572.53;;;21.24;67.53
34931;BME280;21134;49.646;8.560;2022-08-20T05:40:12;100575.84;;;21.28;67.25
34931;BME280;21134;49.646;8.560;2022-08-20T05:42:39;100570.72;;;21.26;67.02
34931;BME280;21134;49.646;8.560;2022-08-20T05:45:07;100578.16;;;21.34;67.21
34931;BME280;21134;49.646;8.560;2022-08-20T05:47:37;100576.16;;;21.41;66.57
34931;BME280;21134;49.646;8.560;2022-08-20T05:50:06;100585.13;;;21.33;66.91
34931;BME280;21134;49.646;8.560;2022-08-20T05:52:33;100585.97;;;21.35;67.12
34931;BME280;21134;49.646;8.560;2022-08-20T05:54:59;100581.47;;;21.39;67.93
34931;BME280;21134;49.646;8.560;2022-08-20T05:57:27;100585.56;;;21.45;67.77
34931;BME280;21134;49.646;8.560;2022-08-20T05:59:53;100590.53;;;21.49;68.34
34931;BME280;21134;49.646;8.560;2022-08-20T06:02:20;100590.28;;;21.55;70.68
34931;BME280;21134;49.646;8.560;2022-08-20T06:05:04;100599.31;;;21.67;74.21
34931;BME280;21134;49.646;8.560;2022-08-20T06:07:31;100598.66;;;21.62;77.65
34931;BME280;21134;49.646;8.560;2022-08-20T06:09:59;100605.88;;;21.36;78.87
34931;BME280;21134;49.646;8.560;2022-08-20T06:12:27;100600.44;;;21.21;80.84
34931;BME280;21134;49.646;8.560;2022-08-20T06:14:53;100602.88;;;21.05;81.80
34931;BME280;21134;49.646;8.560;2022-08-20T06:17:20;100596.38;;;20.95;85.36
34931;BME280;21134;49.646;8.560;2022-08-20T06:19:47;100590.59;;;20.88;86.18
34931;BME280;21134;49.646;8.560;2022-08-20T06:22:14;100587.28;;;20.84;86.51
34931;BME280;21134;49.646;8.560;2022-08-20T06:24:41;100587.31;;;20.83;86.78
34931;BME280;21134;49.646;8.560;2022-08-20T06:27:07;100587.56;;;20.77;87.40
34931;BME280;21134;49.646;8.560;2022-08-20T06:29:40;100585.34;;;20.67;88.88
34931;BME280;21134;49.646;8.560;2022-08-20T06:32:07;100582.34;;;20.56;90.25
34931;BME280;21134;49.646;8.560;2022-08-20T06:34:33;100594.28;;;20.62;90.29
34931;BME280;21134;49.646;8.560;2022-08-20T06:37:00;100589.66;;;20.69;89.88
34931;BME280;21134;49.646;8.560;2022-08-20T06:39:27;100593.47;;;20.60;91.72
34931;BME280;21134;49.646;8.560;2022-08-20T06:41:55;100597.75;;;20.61;91.39
34931;BME280;21134;49.646;8.560;2022-08-20T06:44:22;100600.34;;;20.61;91.95
34931;BME280;21134;49.646;8.560;2022-08-20T06:46:51;100595.75;;;20.67;92.21
34931;BME280;21134;49.646;8.560;2022-08-20T06:49:18;100598.19;;;20.72;92.74
34931;BME280;21134;49.646;8.560;2022-08-20T06:51:45;100601.28;;;20.80;92.14
34931;BME280;21134;49.646;8.560;2022-08-20T06:54:11;100599.06;;;20.93;92.67
34931;BME280;21134;49.646;8.560;2022-08-20T06:56:38;100600.13;;;21.08;92.01
34931;BME280;21134;49.646;8.560;2022-08-20T06:59:04;100601.50;;;21.17;91.07
34931;BME280;21134;49.646;8.560;2022-08-20T07:01:31;100598.28;;;21.30;89.92
34931;BME280;21134;49.646;8.560;2022-08-20T07:03:58;100605.53;;;21.44;89.28
34931;BME280;21134;49.646;8.560;2022-08-20T07:06:25;100605.91;;;21.55;90.00
34931;BME280;21134;49.646;8.560;2022-08-20T07:08:52;100609.16;;;21.61;88.36
34931;BME280;21134;49.646;8.560;2022-08-20T07:11:19;100609.28;;;21.57;89.42
34931;BME280;21134;49.646;8.560;2022-08-20T07:13:46;100610.84;;;21.62;90.72
34931;BME280;21134;49.646;8.560;2022-08-20T07:16:13;100615.69;;;21.69;90.56
34931;BME280;21134;49.646;8.560;2022-08-20T07:18:40;100611.78;;;21.79;91.04
34931;BME280;21134;49.646;8.560;2022-08-20T07:21:08;100618.66;;;21.80;91.84
34931;BME280;21134;49.646;8.560;2022-08-20T07:23:36;100617.16;;;21.75;90.37
34931;BME280;21134;49.646;8.560;2022-08-20T07:26:02;100624.16;;;21.74;90.96
34931;BME280;21134;49.646;8.560;2022-08-20T07:28:29;100620.56;;;21.77;90.77
34931;BME280;21134;49.646;8.560;2022-08-20T07:30:57;100622.25;;;21.78;90.80
34931;BME280;21134;49.646;8.560;2022-08-20T07:33:42;100621.41;;;21.77;90.56
34931;BME280;21134;49.646;8.560;2022-08-20T07:36:10;100614.38;;;21.79;90.03
34931;BME280;21134;49.646;8.560;2022-08-20T07:38:38;100629.00;;;21.82;89.44
34931;BME280;21134;49.646;8.560;2022-08-20T07:41:09;100619.72;;;21.95;88.44
34931;BME280;21134;49.646;8.560;2022-08-20T07:43:37;100621.47;;;21.95;88.53
34931;BME280;21134;49.646;8.560;2022-08-20T07:46:05;100618.44;;;22.04;89.00
34931;BME280;21134;49.646;8.560;2022-08-20T07:48:34;100629.94;;;22.19;87.98
34931;BME280;21134;49.646;8.560;2022-08-20T07:51:02;100620.34;;;22.19;86.50
34931;BME280;21134;49.646;8.560;2022-08-20T07:53:31;100623.09;;;22.16;86.18
34931;BME280;21134;49.646;8.560;2022-08-20T07:55:58;100623.66;;;22.23;85.99
34931;BME280;21134;49.646;8.560;2022-08-20T07:58:25;100628.16;;;22.38;85.95
34931;BME280;21134;49.646;8.560;2022-08-20T08:00:52;100628.31;;;22.52;85.78
34931;BME280;21134;49.646;8.560;2022-08-20T08:03:18;100623.03;;;22.71;84.14
34931;BME280;21134;49.646;8.560;2022-08-20T08:05:47;100620.66;;;22.84;81.72
34931;BME280;21134;49.646;8.560;2022-08-20T08:08:18;100629.66;;;23.31;82.54
34931;BME280;21134;49.646;8.560;2022-08-20T08:10:49;100629.06;;;23.59;81.51
34931;BME280;21134;49.646;8.560;2022-08-20T08:13:16;100625.91;;;23.70;80.55
34931;BME280;21134;49.646;8.560;2022-08-20T08:15:45;100626.97;;;23.65;80.13
34931;BME280;21134;49.646;8.560;2022-08-20T08:18:17;100631.41;;;23.81;79.69
34931;BME280;21134;49.646;8.560;2022-08-20T08:20:47;100635.97;;;23.77;76.88
34931;BME280;21134;49.646;8.560;2022-08-20T08:23:17;100631.53;;;23.44;76.46
34931;BME280;21134;49.646;8.560;2022-08-20T08:25:44;100642.03;;;23.27;77.03
34931;BME280;21134;49.646;8.560;2022-08-20T08:28:13;100639.63;;;23.40;77.89
34931;BME280;21134;49.646;8.560;2022-08-20T08:30:40;100635.72;;;23.31;78.06
34931;BME280;21134;49.646;8.560;2022-08-20T08:33:17;100638.44;;;23.30;78.24
34931;BME280;21134;49.646;8.560;2022-08-20T08:35:53;100630.50;;;23.31;77.34
34931;BME280;21134;49.646;8.560;2022-08-20T08:38:21;100633.22;;;23.30;77.47
34931;BME280;21134;49.646;8.560;2022-08-20T08:40:48;100640.09;;;23.31;77.94
34931;BME280;21134;49.646;8.560;2022-08-20T08:43:17;100642.47;;;23.35;76.79
34931;BME280;21134;49.646;8.560;2022-08-20T08:45:55;100640.47;;;23.74;76.91
34931;BME280;21134;49.646;8.560;2022-08-20T08:48:30;100635.72;;;24.13;73.60
34931;BME280;21134;49.646;8.560;2022-08-20T08:50:58;100631.31;;;24.30;73.36
34931;BME280;21134;49.646;8.560;2022-08-20T08:53:29;100636.13;;;24.53;71.24
34931;BME280;21134;49.646;8.560;2022-08-20T08:55:57;100629.78;;;24.88;71.70
34931;BME280;21134;49.646;8.560;2022-08-20T08:58:26;100622.53;;;25.07;68.94
34931;BME280;21134;49.646;8.560;2022-08-20T09:00:53;100625.06;;;25.09;70.76
34931;BME280;21134;49.646;8.560;2022-08-20T09:03:27;100623.06;;;24.98;72.31
34931;BME280;21134;49.646;8.560;2022-08-20T09:05:58;100629.84;;;25.02;71.12
34931;BME280;21134;49.646;8.560;2022-08-20T09:08:26;100628.59;;;25.08;71.18
34931;BME280;21134;49.646;8.560;2022-08-20T09:11:00;100630.31;;;25.09;68.97
34931;BME280;21134;49.646;8.560;2022-08-20T09:13:29;100637.75;;;25.00;69.46
34931;BME280;21134;49.646;8.560;2022-08-20T09:15:55;100625.84;;;24.80;70.95
34931;BME280;21134;49.646;8.560;2022-08-20T09:18:22;100635.41;;;24.66;71.07
34931;BME280;21134;49.646;8.560;2022-08-20T09:20:48;100633.50;;;24.53;70.74
34931;BME280;21134;49.646;8.560;2022-08-20T09:23:15;100637.03;;;24.36;71.33
34931;BME280;21134;49.646;8.560;2022-08-20T09:25:42;100631.66;;;24.24;71.54
34931;BME280;21134;49.646;8.560;2022-08-20T09:28:08;100642.88;;;24.10;71.83
34931;BME280;21134;49.646;8.560;2022-08-20T09:30:36;100641.38;;;23.90;74.10
34931;BME280;21134;49.646;8.560;2022-08-20T09:33:03;100634.59;;;23.86;73.66
34931;BME280;21134;49.646;8.560;2022-08-20T09:35:29;100632.75;;;23.72;76.34
34931;BME280;21134;49.646;8.560;2022-08-20T09:37:56;100634.41;;;23.73;75.13
34931;BME280;21134;49.646;8.560;2022-08-20T09:40:22;100623.22;;;23.71;75.45
34931;BME280;21134;49.646;8.560;2022-08-20T09:42:49;100627.75;;;23.67;76.16
34931;BME280;21134;49.646;8.560;2022-08-20T09:45:16;100633.56;;;23.73;76.49
34931;BME280;21134;49.646;8.560;2022-08-20T09:47:44;100623.72;;;23.78;74.23
34931;BME280;21134;49.646;8.560;2022-08-20T09:50:11;100622.72;;;23.96;72.69
34931;BME280;21134;49.646;8.560;2022-08-20T09:52:41;100617.41;;;24.13;71.97
34931;BME280;21134;49.646;8.560;2022-08-20T09:55:17;100615.94;;;24.55;70.97
34931;BME280;21134;49.646;8.560;2022-08-20T09:57:45;100626.28;;;25.03;69.56
34931;BME280;21134;49.646;8.560;2022-08-20T10:00:12;100620.75;;;25.08;66.94
34931;BME280;21134;49.646;8.560;2022-08-20T10:02:39;100619.19;;;25.05;67.26
34931;BME280;21134;49.646;8.560;2022-08-20T10:05:08;100616.53;;;24.91;68.33
34931;BME280;21134;49.646;8.560;2022-08-20T10:07:36;100615.31;;;24.96;66.37
34931;BME280;21134;49.646;8.560;2022-08-20T10:10:04;100616.97;;;24.83;66.89
34931;BME280;21134;49.646;8.560;2022-08-20T10:12:31;100604.59;;;24.71;66.75
34931;BME280;21134;49.646;8.560;2022-08-20T10:14:57;100605.88;;;24.94;65.42
34931;BME280;21134;49.646;8.560;2022-08-20T10:17:24;100607.66;;;25.08;65.84
34931;BME280;21134;49.646;8.560;2022-08-20T10:19:50;100611.38;;;25.34;66.08
34931;BME280;21134;49.646;8.560;2022-08-20T10:22:18;100602.38;;;25.81;65.66
34931;BME280;21134;49.646;8.560;2022-08-20T10:24:45;100587.97;;;26.15;63.51
34931;BME280;21134;49.646;8.560;2022-08-20T10:27:11;100590.44;;;26.31;65.51
34931;BME280;21134;49.646;8.560;2022-08-20T10:29:38;100596.09;;;26.52;64.84
34931;BME280;21134;49.646;8.560;2022-08-20T10:32:10;100587.34;;;26.51;64.30
34931;BME280;21134;49.646;8.560;2022-08-20T10:34:37;100574.06;;;26.67;63.08
34931;BME280;21134;49.646;8.560;2022-08-20T10:37:04;100577.28;;;26.58;61.61
34931;BME280;21134;49.646;8.560;2022-08-20T10:39:32;100581.47;;;26.20;63.71
34931;BME280;21134;49.646;8.560;2022-08-20T10:41:59;100582.34;;;26.07;63.32
34931;BME280;21134;49.646;8.560;2022-08-20T10:44:25;100586.38;;;26.12;64.15
34931;BME280;21134;49.646;8.560;2022-08-20T10:46:52;100582.16;;;26.10;63.73
34931;BME280;21134;49.646;8.560;2022-08-20T10:49:19;100587.66;;;25.92;64.61
34931;BME280;21134;49.646;8.560;2022-08-20T10:51:45;100584.47;;;25.87;61.65
34931;BME280;21134;49.646;8.560;2022-08-20T10:54:12;100577.16;;;25.92;61.67
34931;BME280;21134;49.646;8.560;2022-08-20T10:56:40;100573.31;;;26.25;56.58
34931;BME280;21134;49.646;8.560;2022-08-20T10:59:07;100572.56;;;26.23;56.08
34931;BME280;21134;49.646;8.560;2022-08-20T11:01:33;100567.97;;;26.27;56.11
34931;BME280;21134;49.646;8.560;2022-08-20T11:04:00;100560.72;;;26.70;56.03
34931;BME280;21134;49.646;8.560;2022-08-20T11:06:26;100566.19;;;26.93;55.04
34931;BME280;21134;49.646;8.560;2022-08-20T11:08:53;100570.34;;;27.22;54.01
34931;BME280;21134;49.646;8.560;2022-08-20T11:11:20;100565.91;;;27.10;53.25
34931;BME280;21134;49.646;8.560;2022-08-20T11:13:47;100574.28;;;27.02;52.41
34931;BME280;21134;49.646;8.560;2022-08-20T11:16:14;100568.13;;;27.03;51.91
34931;BME280;21134;49.646;8.560;2022-08-20T11:18:40;100568.53;;;26.84;52.97
34931;BME280;21134;49.646;8.560;2022-08-20T11:21:07;100564.94;;;26.73;54.81
34931;BME280;21134;49.646;8.560;2022-08-20T11:23:33;100560.41;;;26.62;57.88
34931;BME280;21134;49.646;8.560;2022-08-20T11:26:00;100565.47;;;26.65;58.70
34931;BME280;21134;49.646;8.560;2022-08-20T11:28:26;100559.06;;;26.95;57.54
34931;BME280;21134;49.646;8.560;2022-08-20T11:30:56;100560.09;;;27.05;59.02
34931;BME280;21134;49.646;8.560;2022-08-20T11:33:23;100555.47;;;27.08;58.59
34931;BME280;21134;49.646;8.560;2022-08-20T11:35:50;100563.28;;;27.35;52.11
34931;BME280;21134;49.646;8.560;2022-08-20T11:38:17;100554.16;;;27.65;48.07
34931;BME280;21134;49.646;8.560;2022-08-20T11:40:44;100546.44;;;27.88;47.95
34931;BME280;21134;49.646;8.560;2022-08-20T11:43:11;100548.03;;;28.25;47.15
34931;BME280;21134;49.646;8.560;2022-08-20T11:45:38;100555.03;;;28.38;46.08
34931;BME280;21134;49.646;8.560;2022-08-20T11:48:05;100552.50;;;28.60;45.33
34931;BME280;21134;49.646;8.560;2022-08-20T11:50:32;100556.03;;;28.48;44.52
34931;BME280;21134;49.646;8.560;2022-08-20T11:52:59;100547.69;;;28.54;46.48
34931;BME280;21134;49.646;8.560;2022-08-20T11:55:25;100537.44;;;28.38;46.34
34931;BME280;21134;49.646;8.560;2022-08-20T11:57:52;100544.72;;;27.99;47.34
34931;BME280;21134;49.646;8.560;2022-08-20T12:00:21;100537.94;;;27.71;45.48
34931;BME280;21134;49.646;8.560;2022-08-20T12:02:48;100536.34;;;27.81;45.93
34931;BME280;21134;49.646;8.560;2022-08-20T12:05:18;100546.38;;;28.00;46.65
34931;BME280;21134;49.646;8.560;2022-08-20T12:07:46;100540.00;;;28.16;45.77
34931;BME280;21134;49.646;8.560;2022-08-20T12:10:13;100551.06;;;27.84;47.00
34931;BME280;21134;49.646;8.560;2022-08-20T12:12:39;100546.34;;;27.76;46.34
34931;BME280;21134;49.646;8.560;2022-08-20T12:15:08;100539.44;;;27.99;46.35
34931;BME280;21134;49.646;8.560;2022-08-20T12:17:35;100535.13;;;28.22;46.20
34931;BME280;21134;49.646;8.560;2022-08-20T12:20:05;100540.31;;;28.35;44.97
34931;BME280;21134;49.646;8.560;2022-08-20T12:22:34;100533.00;;;28.03;46.00
34931;BME280;21134;49.646;8.560;2022-08-20T12:25:00;100527.31;;;27.86;46.33
34931;BME280;21134;49.646;8.560;2022-08-20T12:27:29;100529.75;;;28.00;46.21
34931;BME280;21134;49.646;8.560;2022-08-20T12:29:58;100526.63;;;28.30;44.97
34931;BME280;21134;49.646;8.560;2022-08-20T12:32:28;100524.81;;;28.55;44.21
34931;BME280;21134;49.646;8.560;2022-08-20T12:34:55;100533.50;;;28.79;42.90
34931;BME280;21134;49.646;8.560;2022-08-20T12:37:25;100523.91;;;28.89;41.88
34931;BME280;21134;49.646;8.560;2022-08-20T12:39:58;100522.88;;;29.03;41.08
34931;BME280;21134;49.646;8.560;2022-08-20T12:42:26;100519.75;;;29.09;39.83
34931;BME280;21134;49.646;8.560;2022-08-20T12:44:54;100509.94;;;29.11;39.95
34931;BME280;21134;49.646;8.560;2022-08-20T12:47:23;100516.53;;;29.06;38.96
34931;BME280;21134;49.646;8.560;2022-08-20T12:49:52;100505.03;;;29.07;39.39
34931;BME280;21134;49.646;8.560;2022-08-20T12:52:21;100511.72;;;29.33;38.53
34931;BME280;21134;49.646;8.560;2022-08-20T12:54:48;100524.28;;;29.41;38.66